createdAt,value
2022-09-14T00:01:25.249Z,100578.03
2022-09-14T00:03:54.778Z,100566.72
2022-09-14T00:06:22.774Z,100564.06
2022-09-14T00:08:54.205Z,100564.81
2022-09-14T00:11:24.207Z,100564.00
2022-09-14T00:13:51.311Z,100562.25
2022-09-14T00:16:22.067Z,100561.44
2022-09-14T00:18:53.772Z,100564.94
2022-09-14T00:21:21.223Z,100558.91
2022-09-14T00:23:48.304Z,100561.34
2022-09-14T00:26:20.104Z,100559.66
2022-09-14T00:28:54.289Z,100561.44
2022-09-14T00:31:22.525Z,100556.28
2022-09-14T00:33:51.116Z,100552.84
2022-09-14T00:36:25.100Z,100551.03
2022-09-14T00:38:52.695Z,100539.56
2022-09-14T00:41:24.364Z,100535.94
2022-09-14T00:43:59.897Z,100528.06
2022-09-14T00:46:28.935Z,100532.66
2022-09-14T00:48:58.960Z,100525.19
2022-09-14T00:51:28.579Z,100538.16
2022-09-14T00:53:55.511Z,100531.97
2022-09-14T00:56:22.260Z,100531.13
2022-09-14T00:58:51.543Z,100523.25
2022-09-14T01:01:18.270Z,100527.63
2022-09-14T01:03:45.009Z,100508.44
2022-09-14T01:06:14.631Z,100513.66
2022-09-14T01:09:04.972Z,100506.00
2022-09-14T01:11:31.545Z,100515.53
2022-09-14T01:14:08.134Z,100504.94
2022-09-14T01:16:47.981Z,100509.50
2022-09-14T01:19:38.834Z,100513.88
2022-09-14T01:22:27.419Z,100505.25
2022-09-14T01:25:23.657Z,100500.66
2022-09-14T01:27:51.667Z,100492.00
2022-09-14T01:30:23.201Z,100490.19
2022-09-14T01:32:56.631Z,100492.00
2022-09-14T01:35:31.117Z,100487.81
2022-09-14T01:38:09.417Z,100488.72
2022-09-14T01:40:46.035Z,100471.22
2022-09-14T01:43:15.608Z,100483.25
2022-09-14T01:45:51.621Z,100478.94
2022-09-14T01:48:21.772Z,100477.13
2022-09-14T01:50:53.817Z,100475.31
2022-09-14T01:53:45.667Z,100473.53
2022-09-14T01:56:23.716Z,100463.09
2022-09-14T01:59:05.873Z,100469.19
2022-09-14T02:01:46.483Z,100470.03
2022-09-14T02:04:21.686Z,100465.66
2022-09-14T02:06:49.367Z,100461.25
2022-09-14T02:09:19.958Z,100463.97
2022-09-14T02:11:47.712Z,100455.28
2022-09-14T02:14:14.556Z,100441.94
2022-09-14T02:16:43.689Z,100450.63
2022-09-14T02:19:10.693Z,100461.19
2022-09-14T02:21:38.418Z,100447.06
2022-09-14T02:24:05.616Z,100448.88
2022-09-14T02:26:32.686Z,100442.75
2022-09-14T02:28:59.598Z,100448.25
2022-09-14T02:31:37.666Z,100448.94
2022-09-14T02:34:04.237Z,100440.88
2022-09-14T02:36:55.763Z,100447.00
2022-09-14T02:39:31.317Z,100444.41
2022-09-14T02:42:13.616Z,100448.09
2022-09-14T02:44:55.353Z,100452.56
2022-09-14T02:47:27.778Z,100439.44
2022-09-14T02:50:32.555Z,100433.34
2022-09-14T17:24:18.912Z,99941.53
2022-09-14T17:26:46.663Z,99940.28
2022-09-14T17:29:13.874Z,99936.63
2022-09-14T17:31:42.355Z,99930.50
2022-09-14T17:34:11.586Z,99922.69
2022-09-14T17:36:38.696Z,99908.00
2022-09-14T17:39:11.749Z,99911.44
2022-09-14T17:41:39.751Z,99880.41
2022-09-14T17:44:07.630Z,99895.81
2022-09-14T17:46:35.938Z,99898.06
2022-09-14T17:49:04.825Z,99900.88
2022-09-14T17:51:32.936Z,99903.78
2022-09-14T17:54:01.029Z,99903.28
2022-09-14T17:56:28.973Z,99898.13
2022-09-14T17:59:17.047Z,99897.81
2022-09-14T18:01:43.923Z,99893.69
2022-09-14T18:04:12.923Z,99891.44
2022-09-14T18:06:42.700Z,99890.81
2022-09-14T18:09:13.519Z,99883.25
2022-09-14T18:11:40.168Z,99878.66
2022-09-14T18:14:06.845Z,99874.44
2022-09-14T18:16:34.246Z,99854.81
2022-09-14T18:19:00.856Z,99860.63
2022-09-14T18:21:27.660Z,99848.34
2022-09-14T18:23:58.404Z,99855.94
2022-09-14T18:26:25.857Z,99800.16
2022-09-14T18:28:56.289Z,99855.28
2022-09-14T18:31:23.350Z,99827.53
2022-09-14T18:33:52.348Z,99862.88
2022-09-14T18:36:20.582Z,99844.44
2022-09-14T18:38:48.763Z,99844.09
2022-09-14T18:41:17.114Z,99841.44
2022-09-14T18:43:50.340Z,99824.28
2022-09-14T18:46:18.144Z,99840.25
2022-09-14T18:48:45.556Z,99837.34
2022-09-14T18:51:14.896Z,99838.22
2022-09-14T18:53:42.026Z,99832.75
2022-09-14T18:56:12.396Z,99830.84
2022-09-14T18:58:42.148Z,99828.09
2022-09-14T19:01:09.612Z,99830.09
2022-09-14T19:03:38.016Z,99824.53
2022-09-14T19:06:11.159Z,99798.59
2022-09-14T19:08:37.758Z,99807.88
2022-09-14T19:11:17.503Z,99780.19
2022-09-14T19:13:45.406Z,99801.38
2022-09-14T19:16:19.487Z,99800.25
2022-09-14T19:18:47.941Z,99796.66
2022-09-14T19:21:23.619Z,99788.81
2022-09-14T19:24:04.439Z,99780.13
2022-09-14T19:26:33.745Z,99775.66
2022-09-14T19:29:01.872Z,99778.22
2022-09-14T19:31:30.583Z,99788.91
2022-09-14T19:33:58.840Z,99778.41
2022-09-14T19:36:26.351Z,99777.63
2022-09-14T19:38:53.616Z,99783.63
2022-09-14T19:41:23.469Z,99781.81
2022-09-14T19:43:50.047Z,99794.19
2022-09-14T19:46:19.405Z,99772.31
2022-09-14T19:48:47.233Z,99780.78
2022-09-14T19:51:19.368Z,99769.34
2022-09-14T19:53:48.871Z,99761.59
2022-09-14T19:56:18.791Z,99766.69
2022-09-14T19:58:50.338Z,99758.84
2022-09-14T20:01:19.614Z,99762.34
2022-09-14T20:03:47.960Z,99759.53
2022-09-14T20:06:22.146Z,99761.25
2022-09-14T20:08:51.556Z,99755.16
2022-09-14T20:11:20.408Z,99751.66
2022-09-14T20:13:51.127Z,99759.53
2022-09-14T20:16:20.666Z,99768.28
2022-09-14T20:18:48.995Z,99758.50
2022-09-14T20:21:19.356Z,99757.88
2022-09-14T20:24:11.656Z,99757.72
2022-09-14T20:26:35.616Z,99754.41
2022-09-14T20:29:02.725Z,99762.88
2022-09-14T20:31:30.605Z,99764.66
2022-09-14T20:33:57.974Z,99751.50
2022-09-14T20:36:25.430Z,99752.38
2022-09-14T20:38:56.406Z,99747.09
2022-09-14T20:41:24.727Z,99741.78
2022-09-14T20:43:52.285Z,99726.19
2022-09-14T20:46:21.956Z,99729.81
2022-09-14T20:48:52.584Z,99720.16
2022-09-14T20:51:21.058Z,99723.47
2022-09-14T20:53:48.653Z,99704.44
2022-09-14T20:56:19.357Z,99706.72
2022-09-14T20:58:46.453Z,99705.97
2022-09-14T21:01:18.597Z,99700.00
2022-09-14T21:03:48.388Z,99711.19
2022-09-14T21:06:18.790Z,99705.28
2022-09-14T21:08:45.949Z,99687.88
2022-09-14T21:11:19.182Z,99700.50
2022-09-14T21:13:46.613Z,99696.97
2022-09-14T21:16:17.205Z,99695.16
2022-09-14T21:18:46.858Z,99683.00
2022-09-14T21:21:16.080Z,99689.13
2022-09-14T21:23:43.721Z,99698.63
2022-09-14T21:26:11.435Z,99690.69
2022-09-14T21:28:39.292Z,99683.75
2022-09-14T21:31:07.359Z,99676.06
2022-09-14T21:33:37.993Z,99671.38
2022-09-14T21:36:10.243Z,99672.31
2022-09-14T21:38:37.091Z,99662.94
2022-09-14T21:41:08.481Z,99675.06
2022-09-14T21:43:39.955Z,99668.03
2022-09-14T21:46:07.689Z,99667.84
2022-09-14T21:48:36.436Z,99653.28
2022-09-14T21:51:15.430Z,99665.22
2022-09-14T21:53:52.453Z,99669.66
2022-09-14T21:56:20.567Z,99661.63
2022-09-14T21:58:56.465Z,99663.38
2022-09-14T22:01:24.035Z,99672.06
2022-09-14T22:03:51.966Z,99664.22
2022-09-14T22:06:22.605Z,99658.97
2022-09-14T22:08:50.690Z,99651.81
2022-09-14T22:11:39.505Z,99624.34
2022-09-14T22:14:10.847Z,99626.06
2022-09-14T22:16:38.019Z,99643.09
2022-09-14T22:19:10.425Z,99641.47
2022-09-14T22:21:38.653Z,99635.44
2022-09-14T22:24:10.100Z,99633.53
2022-09-14T22:26:41.515Z,99634.50
2022-09-14T22:29:09.726Z,99633.28
2022-09-14T22:31:39.921Z,99613.38
2022-09-14T22:34:08.233Z,99615.78
2022-09-14T22:36:35.474Z,99602.97
2022-09-14T22:39:03.055Z,99605.28
2022-09-14T22:41:29.688Z,99608.84
2022-09-14T22:43:56.778Z,99608.75
2022-09-14T22:46:24.436Z,99609.69
2022-09-14T22:48:52.300Z,99608.06
2022-09-14T22:51:22.241Z,99606.31
2022-09-14T22:53:49.607Z,99599.38
2022-09-14T22:56:19.312Z,99597.34
2022-09-14T22:58:46.923Z,99603.56
2022-09-14T23:01:16.289Z,99592.19
2022-09-14T23:03:44.665Z,99592.13
2022-09-14T23:06:11.724Z,99563.16
2022-09-14T23:08:39.568Z,99586.25
2022-09-14T23:11:10.914Z,99569.88
2022-09-14T23:13:42.170Z,99564.47
2022-09-14T23:16:14.867Z,99574.97
2022-09-14T23:18:41.928Z,99568.56
2022-09-14T23:21:09.135Z,99579.16
2022-09-14T23:23:38.195Z,99573.00
2022-09-14T23:26:08.830Z,99565.06
2022-09-14T23:28:36.405Z,99559.28
2022-09-14T23:31:03.718Z,99565.34
2022-09-14T23:33:31.126Z,99568.09
2022-09-14T23:35:57.991Z,99559.56
2022-09-14T23:41:09.011Z,99537.53
2022-09-14T23:43:35.621Z,99552.31
2022-09-14T23:46:02.300Z,99544.63
2022-09-14T23:48:28.912Z,99548.31
2022-09-14T23:51:04.459Z,99545.19
2022-09-14T23:53:31.594Z,99540.06
2022-09-14T23:55:58.716Z,99520.75
2022-09-14T23:58:26.193Z,99537.31
